Time;durP1;ratioP1;P1;durP2;ratioP2;P2;SDS_P1;SDS_P2;PMS_P1;PMS_P2;Temp;Humidity;BMP_temperature;BMP_pressure;BME280_temperature;BME280_humidity;BME280_pressure;Samples;Min_cycle;Max_cycle;Signal;HPM_P1;HPM_P2
2021/01/09 00:00:09;;;;;;;5.53;3.47;;;0.80;99.90;;;;;;5106939;28;20067;-64
2021/01/09 00:02:35;;;;;;;7.13;3.28;;;0.90;99.90;;;;;;5106788;28;20051;-64
2021/01/09 00:05:00;;;;;;;7.80;3.20;;;0.90;99.90;;;;;;5106580;28;20097;-64
2021/01/09 00:07:26;;;;;;;6.95;3.38;;;0.80;99.90;;;;;;5106756;28;20120;-65
2021/01/09 00:09:52;;;;;;;6.43;2.90;;;0.80;99.90;;;;;;5106537;28;20040;-63
2021/01/09 00:12:18;;;;;;;3.85;2.30;;;0.80;99.90;;;;;;5106389;28;20044;-64
2021/01/09 00:14:44;;;;;;;5.07;2.70;;;0.70;99.90;;;;;;5106710;28;20050;-63
2021/01/09 00:17:09;;;;;;;5.93;3.35;;;0.80;99.90;;;;;;5106554;28;20048;-64
2021/01/09 00:19:35;;;;;;;4.72;2.67;;;0.80;99.90;;;;;;5106200;28;20045;-64
2021/01/09 00:22:01;;;;;;;5.07;2.80;;;0.80;99.90;;;;;;5106326;28;20044;-64
2021/01/09 00:24:27;;;;;;;4.85;2.78;;;0.90;99.90;;;;;;5106234;28;20044;-63
2021/01/09 00:26:53;;;;;;;3.40;2.75;;;0.70;99.90;;;;;;5106209;28;20063;-64
2021/01/09 00:29:19;;;;;;;4.10;2.45;;;0.70;99.90;;;;;;5106198;28;20044;-65
2021/01/09 00:31:44;;;;;;;5.47;3.05;;;0.70;99.90;;;;;;5106419;28;20412;-64
2021/01/09 00:34:10;;;;;;;7.97;3.30;;;0.70;99.90;;;;;;5106257;28;20051;-64
2021/01/09 00:36:37;;;;;;;6.68;4.15;;;0.80;99.90;;;;;;5106314;28;20068;-65
2021/01/09 00:39:04;;;;;;;7.65;4.13;;;0.70;99.90;;;;;;5106114;28;20052;-64
2021/01/09 00:41:31;;;;;;;8.38;4.30;;;0.50;99.90;;;;;;5109322;28;20074;-65
2021/01/09 00:43:58;;;;;;;6.63;4.70;;;0.60;99.90;;;;;;5112967;28;20054;-64
2021/01/09 00:46:24;;;;;;;8.43;4.47;;;0.50;99.90;;;;;;5112933;28;20044;-65
2021/01/09 00:48:50;;;;;;;12.35;4.13;;;0.40;99.90;;;;;;5112612;28;20040;-63
2021/01/09 00:51:17;;;;;;;7.65;4.35;;;0.20;99.90;;;;;;5112764;28;20070;-64
2021/01/09 00:53:43;;;;;;;5.78;3.63;;;0.20;99.90;;;;;;5112829;28;20079;-64
2021/01/09 00:56:13;;;;;;;7.10;4.07;;;0.10;99.90;;;;;;5112600;28;20070;-64
2021/01/09 00:58:39;;;;;;;7.70;4.40;;;0.10;99.90;;;;;;5112874;28;20048;-64
2021/01/09 01:01:05;;;;;;;8.40;4.45;;;0.10;99.90;;;;;;5112696;28;20049;-65
2021/01/09 01:03:31;;;;;;;10.73;5.13;;;0.00;99.90;;;;;;5112644;28;20069;-64
2021/01/09 01:05:57;;;;;;;11.43;4.53;;;-0.10;99.90;;;;;;5112732;28;20089;-64
2021/01/09 01:08:23;;;;;;;14.02;5.30;;;-0.10;99.90;;;;;;5112585;28;20043;-64
2021/01/09 01:10:49;;;;;;;12.52;6.50;;;-0.10;99.90;;;;;;5112645;28;20122;-64
2021/01/09 01:13:15;;;;;;;10.23;5.78;;;0.00;99.90;;;;;;5112855;28;20081;-64
2021/01/09 01:15:42;;;;;;;13.02;6.15;;;-0.10;99.90;;;;;;5112598;28;20044;-64
2021/01/09 01:18:08;;;;;;;15.63;6.70;;;-0.10;99.90;;;;;;5112534;28;20055;-64
2021/01/09 01:20:34;;;;;;;14.88;7.10;;;-0.10;99.90;;;;;;5112492;28;20048;-64
2021/01/09 01:23:00;;;;;;;15.38;7.65;;;-0.10;99.90;;;;;;5112518;28;20040;-64
2021/01/09 01:25:26;;;;;;;14.38;7.03;;;0.00;99.90;;;;;;5112568;28;20036;-65
2021/01/09 01:27:52;;;;;;;30.63;12.52;;;0.00;99.90;;;;;;5112511;28;20047;-64
2021/01/09 01:30:18;;;;;;;40.97;18.80;;;0.00;99.90;;;;;;5112509;28;20078;-63
2021/01/09 01:32:43;;;;;;;44.83;17.90;;;0.00;99.90;;;;;;5112525;28;20044;-63
2021/01/09 01:35:10;;;;;;;45.67;18.65;;;0.10;99.90;;;;;;5112520;28;20149;-63
2021/01/09 01:37:36;;;;;;;32.42;13.25;;;0.20;99.90;;;;;;5112479;28;20439;-64
2021/01/09 01:40:06;;;;;;;28.98;12.23;;;0.20;99.90;;;;;;5112138;28;20078;-64
2021/01/09 01:42:32;;;;;;;28.40;14.10;;;0.20;99.90;;;;;;5112610;28;20044;-64
2021/01/09 01:44:58;;;;;;;27.42;14.13;;;0.20;99.90;;;;;;5112360;28;20119;-64
2021/01/09 01:47:24;;;;;;;25.42;11.43;;;0.10;99.90;;;;;;5112102;28;20044;-64
2021/01/09 01:49:51;;;;;;;25.83;12.10;;;0.20;99.90;;;;;;5112326;28;20492;-63
2021/01/09 01:52:18;;;;;;;16.83;9.83;;;0.30;99.90;;;;;;5111181;28;20056;-63
2021/01/09 01:54:45;;;;;;;17.27;8.32;;;0.40;99.90;;;;;;5108769;28;20044;-64
2021/01/09 01:57:12;;;;;;;17.95;8.65;;;0.40;99.90;;;;;;5109119;28;20048;-63
2021/01/09 01:59:39;;;;;;;14.82;8.13;;;0.50;99.90;;;;;;5108913;28;20047;-63
2021/01/09 02:02:09;;;;;;;17.27;8.50;;;0.50;99.90;;;;;;5108982;28;20044;-63
2021/01/09 02:04:36;;;;;;;14.82;7.68;;;0.50;99.90;;;;;;5108934;28;20054;-63
2021/01/09 02:07:06;;;;;;;19.20;7.70;;;0.60;99.90;;;;;;5108786;28;20119;-64
2021/01/09 02:09:39;;;;;;;20.30;7.80;;;0.60;99.90;;;;;;5108861;28;20044;-64
2021/01/09 02:12:11;;;;;;;12.80;5.93;;;0.60;99.90;;;;;;5108954;28;20044;-64
2021/01/09 02:14:44;;;;;;;10.00;4.93;;;0.70;99.90;;;;;;5108789;28;20075;-64
2021/01/09 02:17:10;;;;;;;10.18;5.68;;;0.80;99.90;;;;;;5108660;28;20051;-64
2021/01/09 02:19:41;;;;;;;8.80;5.40;;;0.80;99.90;;;;;;5108351;28;20046;-64
2021/01/09 02:22:14;;;;;;;9.45;5.55;;;0.90;99.90;;;;;;5108745;28;20491;-64
2021/01/09 02:24:41;;;;;;;10.90;6.30;;;0.80;99.90;;;;;;5108535;28;20044;-64
2021/01/09 02:27:07;;;;;;;16.23;7.10;;;0.80;99.90;;;;;;5108430;28;20044;-64
2021/01/09 02:29:44;;;;;;;15.40;7.28;;;0.70;99.90;;;;;;5108922;28;20043;-64
2021/01/09 02:32:11;;;;;;;11.23;5.63;;;0.70;99.90;;;;;;5108443;28;20070;-64
2021/01/09 02:34:53;;;;;;;11.60;5.63;;;0.70;99.90;;;;;;5108174;28;20055;-63
2021/01/09 02:37:19;;;;;;;13.50;6.78;;;0.70;99.90;;;;;;5108335;28;20107;-63
2021/01/09 02:39:46;;;;;;;16.33;7.38;;;0.60;99.90;;;;;;5108151;28;20048;-63
2021/01/09 02:42:12;;;;;;;12.73;7.68;;;0.50;99.90;;;;;;5108225;28;20044;-63
2021/01/09 02:44:38;;;;;;;16.13;8.70;;;0.50;99.90;;;;;;5108364;28;20110;-63
2021/01/09 02:47:05;;;;;;;19.25;7.80;;;0.40;99.90;;;;;;5107948;28;20044;-63
2021/01/09 02:49:31;;;;;;;17.40;8.43;;;0.40;99.90;;;;;;5108038;28;20040;-64
2021/01/09 02:51:57;;;;;;;17.23;8.07;;;0.40;99.90;;;;;;5108094;28;20047;-64
2021/01/09 02:54:23;;;;;;;12.55;7.18;;;0.40;99.90;;;;;;5108041;28;20047;-63
2021/01/09 02:56:48;;;;;;;11.70;6.80;;;0.40;99.90;;;;;;5107926;28;20036;-64
2021/01/09 02:59:14;;;;;;;13.68;7.50;;;0.50;99.90;;;;;;5107824;28;20040;-63
2021/01/09 03:01:41;;;;;;;14.35;7.40;;;0.50;99.90;;;;;;5107659;28;20056;-64
2021/01/09 03:04:06;;;;;;;12.07;7.13;;;0.50;99.90;;;;;;5107072;28;20043;-64
2021/01/09 03:06:32;;;;;;;12.95;6.68;;;0.50;99.90;;;;;;5107357;28;20043;-63
2021/01/09 03:08:58;;;;;;;17.17;7.68;;;0.60;99.90;;;;;;5107661;28;20067;-63
2021/01/09 03:11:24;;;;;;;13.60;7.25;;;0.50;99.90;;;;;;5107656;28;20133;-64
2021/01/09 03:13:50;;;;;;;11.80;6.60;;;0.60;99.90;;;;;;5107743;28;20100;-63
2021/01/09 03:16:16;;;;;;;12.05;6.90;;;0.70;99.90;;;;;;5107718;28;20036;-64
2021/01/09 03:18:42;;;;;;;9.05;6.43;;;0.80;99.90;;;;;;5107390;28;20070;-63
2021/01/09 03:21:08;;;;;;;9.88;6.70;;;0.80;99.90;;;;;;5107219;28;20032;-64
2021/01/09 03:23:34;;;;;;;16.20;7.03;;;0.80;99.90;;;;;;5107491;28;20040;-64
2021/01/09 03:26:00;;;;;;;12.90;6.57;;;0.70;99.90;;;;;;5107274;28;20058;-64
2021/01/09 03:28:26;;;;;;;14.43;7.28;;;0.70;99.90;;;;;;5107456;28;20039;-63
2021/01/09 03:30:52;;;;;;;13.70;7.43;;;0.70;99.90;;;;;;5107171;28;20044;-63
2021/01/09 03:33:18;;;;;;;12.93;7.53;;;0.70;99.90;;;;;;5107245;28;20051;-63
2021/01/09 03:35:44;;;;;;;12.13;7.50;;;0.60;99.90;;;;;;5107164;28;20040;-63
2021/01/09 03:38:10;;;;;;;14.00;8.10;;;0.60;99.90;;;;;;5107154;28;20040;-63
2021/01/09 03:40:36;;;;;;;11.63;7.28;;;0.60;99.90;;;;;;5106682;28;20063;-64
2021/01/09 03:43:02;;;;;;;12.50;7.30;;;0.50;99.90;;;;;;5107195;28;20092;-63
2021/01/09 03:45:28;;;;;;;16.77;7.65;;;0.50;99.90;;;;;;5106797;28;20051;-63
2021/01/09 03:47:54;;;;;;;13.25;7.38;;;0.50;99.90;;;;;;5106830;28;20117;-64
2021/01/09 03:50:20;;;;;;;9.48;6.25;;;0.50;99.90;;;;;;5106873;28;20048;-64
2021/01/09 03:52:46;;;;;;;12.07;6.82;;;0.60;99.90;;;;;;5106910;28;20113;-64
2021/01/09 03:55:12;;;;;;;14.88;7.20;;;0.60;99.90;;;;;;5107070;28;20122;-64
2021/01/09 03:57:37;;;;;;;14.77;6.85;;;0.60;99.90;;;;;;5106826;28;20499;-63
2021/01/09 04:00:07;;;;;;;10.60;6.68;;;0.70;99.90;;;;;;5106539;28;20047;-63
2021/01/09 04:02:33;;;;;;;10.63;6.35;;;0.60;99.90;;;;;;5106638;28;20044;-65
2021/01/09 04:05:02;;;;;;;10.85;6.82;;;0.60;99.90;;;;;;5106604;28;20385;-64
2021/01/09 04:07:28;;;;;;;14.20;6.88;;;0.60;99.90;;;;;;5106481;28;20100;-64
2021/01/09 04:09:54;;;;;;;11.30;6.88;;;0.60;99.90;;;;;;5106810;28;20058;-64
2021/01/09 04:12:20;;;;;;;11.75;6.20;;;0.60;99.90;;;;;;5106542;28;20036;-64
2021/01/09 04:14:46;;;;;;;9.82;7.05;;;0.60;99.90;;;;;;5106479;28;20051;-63
2021/01/09 04:17:11;;;;;;;12.60;7.05;;;0.70;99.90;;;;;;5106180;28;20048;-63
2021/01/09 04:19:37;;;;;;;9.70;6.03;;;0.70;99.90;;;;;;5106178;28;20055;-63
2021/01/09 04:22:03;;;;;;;13.80;6.85;;;0.70;99.90;;;;;;5106383;28;20040;-64
2021/01/09 04:24:29;;;;;;;9.77;6.15;;;0.70;99.90;;;;;;5106479;28;20056;-63
2021/01/09 04:26:57;;;;;;;15.07;7.30;;;0.70;99.90;;;;;;5106285;28;20043;-64
2021/01/09 04:29:22;;;;;;;;;;;0.70;99.90;;;;;;5106656;28;20048;-64
2021/01/09 04:31:49;;;;;;;11.90;6.50;;;0.70;99.90;;;;;;5106210;28;20015;-64
2021/01/09 04:34:17;;;;;;;11.90;6.22;;;0.80;99.90;;;;;;5106358;28;20044;-64
2021/01/09 04:36:43;;;;;;;12.60;5.90;;;0.80;99.90;;;;;;5106227;28;20118;-64
2021/01/09 04:39:09;;;;;;;8.43;5.25;;;0.80;99.90;;;;;;5106077;28;20051;-64
2021/01/09 04:41:36;;;;;;;11.55;5.45;;;0.80;99.90;;;;;;5106111;28;20048;-64
2021/01/09 04:44:04;;;;;;;9.57;5.10;;;0.90;99.90;;;;;;5106004;28;20058;-64
2021/01/09 04:46:37;;;;;;;8.48;5.05;;;0.90;99.90;;;;;;5106315;28;20390;-64
2021/01/09 04:49:03;;;;;;;10.45;5.30;;;0.90;99.90;;;;;;5105970;28;20121;-64
2021/01/09 04:51:29;;;;;;;11.50;5.25;;;1.00;99.90;;;;;;5106069;28;20052;-65
2021/01/09 04:53:56;;;;;;;9.43;5.20;;;1.00;99.90;;;;;;5106320;28;20048;-64
2021/01/09 04:56:23;;;;;;;11.38;5.20;;;1.00;99.90;;;;;;5106021;28;20099;-65
2021/01/09 04:58:49;;;;;;;13.20;4.82;;;1.00;99.90;;;;;;5105923;28;20064;-64
2021/01/09 05:01:15;;;;;;;10.02;4.78;;;1.00;99.90;;;;;;5106039;28;20044;-64
2021/01/09 05:03:42;;;;;;;10.07;5.18;;;1.00;99.90;;;;;;5105885;28;20043;-63
2021/01/09 05:06:08;;;;;;;12.73;4.95;;;1.10;99.90;;;;;;5105973;28;20454;-64
2021/01/09 05:08:33;;;;;;;11.82;5.00;;;1.10;99.90;;;;;;5106122;28;20040;-64
2021/01/09 05:10:59;;;;;;;10.93;6.20;;;1.10;99.90;;;;;;5105560;28;20044;-64
2021/01/09 05:13:26;;;;;;;13.50;5.47;;;1.10;99.90;;;;;;5105516;28;20044;-64
2021/01/09 05:15:54;;;;;;;9.02;4.95;;;1.10;99.90;;;;;;5105654;28;20044;-63
2021/01/09 05:18:20;;;;;;;12.82;5.25;;;1.10;99.90;;;;;;5105834;28;20466;-63
2021/01/09 05:20:46;;;;;;;9.38;4.45;;;1.10;99.90;;;;;;5105984;28;20051;-65
2021/01/09 05:23:12;;;;;;;9.80;4.85;;;1.10;99.90;;;;;;5105255;28;20449;-63
2021/01/09 05:25:38;;;;;;;11.75;5.20;;;1.10;99.90;;;;;;5105512;28;20043;-65
2021/01/09 05:28:05;;;;;;;12.70;4.70;;;1.10;99.90;;;;;;5106044;28;20060;-64
2021/01/09 05:30:32;;;;;;;10.45;4.55;;;1.20;99.90;;;;;;5109513;28;20052;-64
2021/01/09 05:33:00;;;;;;;12.20;5.30;;;1.20;99.90;;;;;;5109557;28;20131;-65
2021/01/09 05:35:28;;;;;;;11.10;5.38;;;1.20;99.90;;;;;;5109645;28;20048;-65
2021/01/09 05:37:54;;;;;;;7.03;4.45;;;1.30;99.90;;;;;;5108368;28;20044;-64
2021/01/09 05:40:20;;;;;;;9.63;4.95;;;1.30;99.90;;;;;;5109099;28;20059;-64
2021/01/09 05:42:49;;;;;;;14.40;4.68;;;1.40;99.90;;;;;;5109442;28;20044;-65
2021/01/09 05:45:15;;;;;;;8.60;4.40;;;1.40;99.90;;;;;;5109327;28;20522;-64
2021/01/09 05:47:41;;;;;;;9.38;4.22;;;1.40;99.90;;;;;;5109218;28;20071;-64
2021/01/09 05:50:08;;;;;;;10.00;4.38;;;1.40;99.90;;;;;;5109421;28;20052;-64
2021/01/09 05:52:40;;;;;;;8.45;4.07;;;1.40;99.90;;;;;;5109315;28;20056;-64
2021/01/09 05:55:08;;;;;;;11.68;4.28;;;1.40;99.90;;;;;;5108936;28;20148;-64
2021/01/09 05:57:34;;;;;;;;;;;1.40;99.90;;;;;;5109400;28;20050;-64
2021/01/09 06:00:05;;;;;;;12.95;4.00;;;1.40;99.90;;;;;;5108994;28;19920;-64
2021/01/09 06:02:47;;;;;;;12.02;3.83;;;1.40;99.90;;;;;;5108903;28;20051;-64
2021/01/09 06:05:17;;;;;;;9.15;4.43;;;1.50;99.90;;;;;;5108950;28;20071;-64
2021/01/09 06:07:47;;;;;;;12.73;3.92;;;1.50;99.90;;;;;;5109048;28;20040;-64
2021/01/09 06:10:17;;;;;;;8.13;3.40;;;1.50;99.90;;;;;;5108971;28;20088;-64
2021/01/09 06:13:05;;;;;;;13.10;4.32;;;1.40;99.90;;;;;;5108813;28;20039;-64
2021/01/09 06:15:31;;;;;;;10.25;3.95;;;1.40;99.90;;;;;;5108710;28;20085;-64
2021/01/09 06:18:01;;;;;;;11.63;4.18;;;1.30;99.90;;;;;;5108545;28;20052;-64
2021/01/09 06:20:28;;;;;;;9.75;4.05;;;1.30;99.90;;;;;;5108469;28;20055;-63
2021/01/09 06:22:54;;;;;;;9.02;3.88;;;1.20;99.90;;;;;;5108695;28;20093;-64
2021/01/09 06:25:21;;;;;;;7.88;4.70;;;1.10;99.90;;;;;;5108670;28;20048;-64
2021/01/09 06:27:50;;;;;;;11.93;4.80;;;1.10;99.90;;;;;;5108442;28;20081;-64
2021/01/09 06:30:19;;;;;;;12.80;4.07;;;1.10;99.90;;;;;;5108547;28;20043;-64
2021/01/09 06:32:53;;;;;;;10.60;4.35;;;1.10;99.90;;;;;;5108323;28;20499;-63
2021/01/09 06:35:21;;;;;;;6.70;4.10;;;1.10;99.90;;;;;;5108308;28;20044;-63
2021/01/09 06:37:47;;;;;;;12.98;4.03;;;1.10;99.90;;;;;;5108317;28;20051;-63
2021/01/09 06:40:14;;;;;;;12.00;3.97;;;1.00;99.90;;;;;;5107885;28;20060;-63
2021/01/09 06:42:42;;;;;;;16.10;4.28;;;1.00;99.90;;;;;;5108637;28;20062;-63
2021/01/09 06:45:09;;;;;;;13.85;3.83;;;1.00;99.90;;;;;;5108087;28;20423;-63
2021/01/09 06:47:35;;;;;;;7.50;3.65;;;1.00;99.90;;;;;;5108049;28;20564;-64
2021/01/09 06:50:19;;;;;;;12.85;4.68;;;1.00;99.90;;;;;;5108212;28;20044;-64
2021/01/09 06:52:54;;;;;;;12.43;4.03;;;1.00;99.90;;;;;;5108068;28;20044;-64
2021/01/09 06:55:37;;;;;;;11.32;4.00;;;1.00;99.90;;;;;;5108032;28;20048;-65
2021/01/09 06:58:13;;;;;;;9.02;3.72;;;1.00;99.90;;;;;;5107853;28;20044;-64
2021/01/09 07:00:39;;;;;;;7.35;3.45;;;1.00;99.90;;;;;;5107833;28;20054;-64
2021/01/09 07:03:15;;;;;;;13.70;3.70;;;1.00;99.90;;;;;;5107921;28;20044;-64
2021/01/09 07:05:49;;;;;;;12.73;4.45;;;1.00;99.90;;;;;;5107793;28;20070;-64
2021/01/09 07:08:32;;;;;;;7.00;3.70;;;1.00;99.90;;;;;;5107724;28;20446;-64
2021/01/09 07:11:06;;;;;;;15.65;4.05;;;1.10;99.90;;;;;;5107574;28;20052;-64
2021/01/09 07:13:33;;;;;;;9.50;4.28;;;1.00;99.90;;;;;;5107646;28;20586;-64
2021/01/09 07:16:13;;;;;;;11.10;3.50;;;1.10;99.90;;;;;;5107661;28;20051;-64
2021/01/09 07:18:46;;;;;;;10.43;3.55;;;1.10;99.90;;;;;;5107390;28;20051;-64
2021/01/09 07:21:17;;;;;;;8.35;3.03;;;1.10;99.90;;;;;;5107694;28;20128;-64
2021/01/09 07:23:48;;;;;;;14.32;3.08;;;1.20;99.90;;;;;;5107336;28;20044;-63
2021/01/09 07:26:17;;;;;;;7.47;2.97;;;1.10;99.90;;;;;;5107295;28;20051;-64
2021/01/09 07:28:46;;;;;;;12.98;3.33;;;1.10;99.90;;;;;;5107301;28;20048;-64
2021/01/09 07:31:13;;;;;;;13.10;3.40;;;1.10;99.90;;;;;;5107210;28;20051;-64
2021/01/09 07:33:42;;;;;;;8.32;3.20;;;1.00;99.90;;;;;;5107154;28;20054;-64
2021/01/09 07:36:12;;;;;;;6.10;3.25;;;1.00;99.90;;;;;;5107402;28;20044;-64
2021/01/09 07:38:47;;;;;;;8.55;2.90;;;1.10;99.90;;;;;;5107250;28;20113;-64
2021/01/09 07:41:36;;;;;;;8.43;2.53;;;1.10;99.90;;;;;;5106911;28;20056;-65
2021/01/09 07:44:16;;;;;;;10.07;3.05;;;1.10;99.90;;;;;;5107298;28;20126;-64
2021/01/09 07:46:56;;;;;;;10.15;3.38;;;1.00;99.90;;;;;;5106993;28;20058;-66
2021/01/09 07:49:48;;;;;;;7.13;3.50;;;0.90;99.90;;;;;;5106904;28;20048;-66
2021/01/09 07:52:24;;;;;;;6.90;3.35;;;0.90;99.90;;;;;;5105996;28;20044;-64
2021/01/09 07:54:55;;;;;;;8.57;2.80;;;1.00;99.90;;;;;;5107023;28;20055;-63
2021/01/09 07:57:22;;;;;;;6.10;2.97;;;0.90;99.90;;;;;;5106748;28;20055;-64
2021/01/09 07:59:53;;;;;;;11.52;3.47;;;0.80;99.90;;;;;;5106751;28;20419;-64
2021/01/09 08:02:26;;;;;;;10.35;4.13;;;0.60;99.90;;;;;;5106983;28;20047;-64
2021/01/09 08:05:21;;;;;;;8.02;3.70;;;0.60;99.90;;;;;;5106605;28;20039;-64
2021/01/09 08:08:00;;;;;;;13.57;4.07;;;0.70;99.90;;;;;;5106063;28;20060;-64
2021/01/09 08:10:29;;;;;;;8.57;3.58;;;0.80;99.90;;;;;;5106706;28;20048;-63
2021/01/09 08:13:05;;;;;;;6.03;3.30;;;0.90;99.90;;;;;;5106733;28;20069;-64
2021/01/09 08:15:33;;;;;;;12.15;4.53;;;0.80;99.90;;;;;;5106494;28;20044;-64
2021/01/09 08:18:01;;;;;;;12.88;3.92;;;0.90;99.90;;;;;;5106479;28;20048;-64
2021/01/09 08:20:27;;;;;;;7.13;3.67;;;1.00;99.90;;;;;;5106393;28;20051;-64
2021/01/09 08:23:00;;;;;;;7.50;3.20;;;1.10;99.90;;;;;;5106586;28;20111;-64
2021/01/09 08:25:34;;;;;;;5.60;2.97;;;1.20;99.90;;;;;;5106441;28;20047;-64
2021/01/09 08:28:03;;;;;;;9.57;2.85;;;1.40;99.90;;;;;;5106111;28;20051;-64
2021/01/09 08:30:31;;;;;;;8.55;2.83;;;1.50;99.90;;;;;;5106286;28;20044;-64
2021/01/09 08:33:03;;;;;;;12.63;3.08;;;1.70;99.90;;;;;;5106216;28;20047;-63
2021/01/09 08:35:30;;;;;;;10.15;2.55;;;1.70;99.90;;;;;;5105776;28;20043;-64
2021/01/09 08:37:56;;;;;;;7.07;3.10;;;1.80;99.90;;;;;;5105616;28;20036;-64
2021/01/09 08:40:24;;;;;;;6.15;2.53;;;1.80;99.90;;;;;;5105597;28;20056;-64
2021/01/09 08:42:57;;;;;;;6.15;2.30;;;2.00;99.90;;;;;;5106028;28;20119;-64
2021/01/09 08:45:35;;;;;;;13.20;2.90;;;2.10;99.90;;;;;;5105880;28;20094;-64
2021/01/09 08:48:02;;;;;;;9.52;2.50;;;2.10;99.90;;;;;;5105810;28;20127;-64
2021/01/09 08:50:30;;;;;;;10.43;2.08;;;2.20;99.90;;;;;;5105663;28;20052;-63
2021/01/09 08:52:59;;;;;;;6.65;2.88;;;2.20;99.90;;;;;;5105583;28;20047;-65
2021/01/09 08:55:28;;;;;;;7.20;2.50;;;2.30;99.90;;;;;;5106099;28;20055;-64
2021/01/09 08:57:54;;;;;;;8.75;2.65;;;2.30;99.90;;;;;;5105843;28;20040;-64
2021/01/09 09:00:21;;;;;;;5.72;2.20;;;2.30;99.90;;;;;;5106161;28;20559;-64
2021/01/09 09:02:48;;;;;;;8.60;2.58;;;2.30;99.90;;;;;;5108311;28;20059;-63
2021/01/09 09:05:14;;;;;;;3.43;2.33;;;2.40;99.90;;;;;;5110162;28;20092;-64
2021/01/09 09:07:44;;;;;;;10.10;2.42;;;2.30;99.90;;;;;;5109927;28;20293;-64
2021/01/09 09:10:13;;;;;;;4.03;2.00;;;2.30;99.90;;;;;;5110111;28;20032;-63
2021/01/09 09:12:39;;;;;;;14.15;2.53;;;2.40;99.90;;;;;;5109876;28;20457;-64
2021/01/09 09:15:10;;;;;;;6.50;2.55;;;2.40;99.90;;;;;;5109903;28;20040;-64
2021/01/09 09:17:37;;;;;;;6.22;1.92;;;2.50;99.90;;;;;;5109593;28;20094;-64
2021/01/09 09:20:05;;;;;;;8.10;2.60;;;2.40;99.90;;;;;;5109570;28;20055;-64
2021/01/09 09:22:31;;;;;;;9.23;2.40;;;2.50;99.90;;;;;;5109302;28;20090;-64
2021/01/09 09:24:57;;;;;;;8.95;2.75;;;2.50;99.90;;;;;;5109736;28;20044;-64
2021/01/09 09:27:31;;;;;;;5.90;2.55;;;2.60;99.90;;;;;;5109479;28;20044;-64
2021/01/09 09:30:06;;;;;;;7.22;1.85;;;2.70;99.90;;;;;;5109667;28;20051;-63
2021/01/09 09:32:32;;;;;;;6.68;2.22;;;2.70;99.90;;;;;;5109305;28;20484;-64
2021/01/09 09:34:58;;;;;;;4.07;1.88;;;2.80;99.90;;;;;;5109674;28;20044;-65
2021/01/09 09:37:35;;;;;;;9.27;2.13;;;2.80;99.90;;;;;;5109405;28;20040;-64
2021/01/09 09:40:01;;;;;;;10.05;1.90;;;2.80;99.90;;;;;;5109112;28;20134;-64
2021/01/09 09:42:27;;;;;;;4.68;2.05;;;2.90;99.90;;;;;;5109560;28;20048;-64
2021/01/09 09:44:53;;;;;;;9.35;1.80;;;2.90;99.90;;;;;;5109436;28;20051;-64
2021/01/09 09:47:27;;;;;;;4.78;1.50;;;2.90;99.90;;;;;;5109036;28;20063;-64
2021/01/09 09:49:59;;;;;;;10.48;2.10;;;2.90;99.90;;;;;;5109337;28;20054;-64
2021/01/09 09:52:25;;;;;;;4.65;2.38;;;2.90;99.90;;;;;;5109175;28;20044;-64
2021/01/09 09:55:04;;;;;;;7.90;1.50;;;2.90;99.90;;;;;;5109177;28;20071;-63
2021/01/09 09:57:30;;;;;;;9.43;1.77;;;2.80;99.90;;;;;;5109133;28;20491;-64
2021/01/09 10:00:05;;;;;;;4.95;2.08;;;2.80;99.90;;;;;;5108949;28;20101;-64
2021/01/09 10:02:31;;;;;;;3.20;1.85;;;2.80;99.90;;;;;;5108948;28;20077;-64
2021/01/09 10:04:57;;;;;;;9.32;2.80;;;2.80;99.90;;;;;;5108998;28;20198;-64
2021/01/09 10:07:26;;;;;;;8.85;2.10;;;2.70;99.90;;;;;;5108843;28;20127;-64
2021/01/09 10:09:52;;;;;;;6.88;2.35;;;2.80;99.90;;;;;;5108803;28;20046;-64
2021/01/09 10:12:18;;;;;;;4.88;1.95;;;2.90;99.90;;;;;;5108813;28;20048;-65
2021/01/09 10:14:43;;;;;;;6.20;1.77;;;3.10;99.90;;;;;;5108256;28;20052;-64
2021/01/09 10:17:18;;;;;;;13.32;2.33;;;3.10;99.90;;;;;;5108680;28;20044;-65
2021/01/09 10:19:44;;;;;;;8.27;2.38;;;3.20;99.90;;;;;;5108545;28;20048;-64
2021/01/09 10:22:10;;;;;;;6.55;2.20;;;3.20;99.90;;;;;;5108578;28;20044;-64
2021/01/09 10:24:36;;;;;;;9.95;2.22;;;3.20;99.90;;;;;;5108463;28;20040;-64
2021/01/09 10:27:02;;;;;;;6.93;1.65;;;3.30;99.90;;;;;;5108445;28;20075;-65
2021/01/09 10:29:28;;;;;;;5.15;2.13;;;3.40;99.90;;;;;;5108609;28;20044;-65
2021/01/09 10:31:54;;;;;;;4.22;1.65;;;3.50;99.90;;;;;;5108434;28;20055;-65
2021/01/09 10:34:20;;;;;;;13.00;4.07;;;3.60;99.90;;;;;;5108283;28;20093;-64
2021/01/09 10:36:45;;;;;;;5.55;1.50;;;3.60;99.90;;;;;;5108291;28;20044;-63
2021/01/09 10:39:11;;;;;;;3.53;2.05;;;3.70;99.90;;;;;;5108137;28;20044;-64
2021/01/09 10:41:37;;;;;;;6.93;2.17;;;3.70;99.90;;;;;;5108318;28;20048;-64
2021/01/09 10:44:04;;;;;;;5.82;1.90;;;3.80;99.90;;;;;;5108193;28;20553;-64
2021/01/09 10:46:30;;;;;;;4.40;1.40;;;3.80;99.90;;;;;;5108170;28;20097;-65
2021/01/09 10:48:56;;;;;;;6.03;1.40;;;3.80;99.90;;;;;;5108116;28;20044;-64
2021/01/09 10:51:24;;;;;;;4.38;1.33;;;3.70;99.90;;;;;;5107988;28;20044;-64
2021/01/09 10:53:50;;;;;;;9.07;1.60;;;3.70;99.90;;;;;;5107917;28;20051;-64
2021/01/09 10:56:16;;;;;;;4.65;1.88;;;3.80;99.90;;;;;;5108024;28;20044;-64
2021/01/09 10:58:42;;;;;;;5.75;1.67;;;4.10;99.90;;;;;;5107691;28;20052;-64
2021/01/09 11:01:08;;;;;;;6.13;1.90;;;4.40;99.90;;;;;;5107658;28;20044;-64
2021/01/09 11:03:35;;;;;;;4.88;1.58;;;4.50;99.90;;;;;;5107630;28;20128;-64
2021/01/09 11:06:01;;;;;;;2.47;1.23;;;4.70;99.90;;;;;;5107673;28;20048;-64
2021/01/09 11:08:27;;;;;;;3.75;1.67;;;4.70;99.90;;;;;;5107646;28;20048;-64
2021/01/09 11:10:54;;;;;;;3.45;1.30;;;4.70;99.90;;;;;;5107637;28;20044;-64
2021/01/09 11:13:20;;;;;;;3.70;1.13;;;4.80;99.90;;;;;;5107652;28;20149;-64
2021/01/09 11:15:51;;;;;;;4.93;1.10;;;4.80;99.90;;;;;;5107652;28;20044;-63
2021/01/09 11:18:17;;;;;;;5.65;1.52;;;5.00;99.90;;;;;;5107343;28;20452;-63
2021/01/09 11:20:50;;;;;;;6.32;1.20;;;5.10;99.90;;;;;;5107507;28;20060;-64
2021/01/09 11:23:17;;;;;;;5.07;1.38;;;5.20;99.90;;;;;;5107313;28;20088;-62
2021/01/09 11:25:48;;;;;;;5.43;1.55;;;5.30;99.90;;;;;;5106495;28;20073;-65
2021/01/09 11:28:15;;;;;;;3.78;1.20;;;5.20;99.90;;;;;;5107254;28;20048;-63
2021/01/09 11:30:43;;;;;;;3.47;1.33;;;5.30;99.90;;;;;;5107123;28;20040;-63
2021/01/09 11:33:09;;;;;;;4.90;1.23;;;5.50;99.90;;;;;;5107185;28;20415;-64
2021/01/09 11:35:35;;;;;;;5.15;1.55;;;5.60;99.90;;;;;;5107351;28;20048;-64
2021/01/09 11:38:01;;;;;;;4.30;1.80;;;5.60;99.90;;;;;;5106936;28;20143;-64
2021/01/09 11:40:27;;;;;;;4.38;1.20;;;5.70;99.90;;;;;;5107095;28;20048;-64
2021/01/09 11:42:52;;;;;;;5.40;1.25;;;5.70;99.90;;;;;;5107100;28;20047;-64
2021/01/09 11:45:21;;;;;;;5.82;1.23;;;5.80;99.90;;;;;;5107082;28;20044;-64
2021/01/09 11:47:47;;;;;;;5.57;1.30;;;6.20;99.90;;;;;;5107003;28;20089;-65
2021/01/09 11:50:13;;;;;;;2.13;1.10;;;6.70;99.90;;;;;;5107002;28;20044;-69
2021/01/09 11:52:40;;;;;;;3.57;1.70;;;8.10;99.90;;;;;;5106909;28;20044;-69
2021/01/09 11:55:07;;;;;;;3.67;1.20;;;8.20;99.90;;;;;;5106978;28;20460;-71
2021/01/09 11:57:33;;;;;;;2.70;1.15;;;8.30;99.90;;;;;;5106768;28;20052;-72
2021/01/09 11:59:58;;;;;;;4.15;0.90;;;8.10;97.40;;;;;;5106794;28;20044;-70
2021/01/09 12:02:24;;;;;;;4.15;1.20;;;8.10;98.80;;;;;;5106800;28;20051;-75
2021/01/09 12:04:50;;;;;;;6.07;1.10;;;8.20;99.90;;;;;;5106799;28;20047;-75
2021/01/09 12:07:16;;;;;;;4.60;1.10;;;7.80;98.40;;;;;;5106526;28;20048;-75
2021/01/09 12:09:42;;;;;;;4.22;1.65;;;7.90;97.60;;;;;;5106976;28;20048;-75
2021/01/09 12:12:08;;;;;;;4.97;1.15;;;7.90;98.50;;;;;;5106487;28;20088;-75
2021/01/09 12:14:34;;;;;;;2.03;1.02;;;7.80;99.90;;;;;;5106606;28;20055;-74
2021/01/09 12:17:03;;;;;;;2.25;1.17;;;7.80;99.90;;;;;;5106310;28;20070;-75
2021/01/09 12:19:29;;;;;;;2.80;1.27;;;8.20;99.90;;;;;;5106269;28;20048;-75
2021/01/09 12:21:55;;;;;;;2.80;1.13;;;8.40;99.90;;;;;;5106069;28;20097;-75
2021/01/09 12:24:22;;;;;;;5.45;1.02;;;8.30;97.50;;;;;;5106719;28;20055;-75
2021/01/09 12:26:54;;;;;;;3.70;1.20;;;7.90;98.40;;;;;;5106282;28;20067;-76
2021/01/09 12:29:21;;;;;;;5.00;0.90;;;7.40;99.00;;;;;;5106027;28;20064;-75
2021/01/09 12:31:47;;;;;;;2.97;0.90;;;6.80;98.60;;;;;;5106252;28;20487;-75
2021/01/09 12:34:13;;;;;;;5.47;1.38;;;6.70;99.80;;;;;;5106251;28;20115;-75
2021/01/09 12:36:39;;;;;;;3.83;1.38;;;6.40;99.90;;;;;;5105886;28;20044;-73
2021/01/09 12:39:06;;;;;;;4.05;1.08;;;6.20;99.90;;;;;;5106105;28;20066;-74
2021/01/09 12:41:39;;;;;;;7.00;1.20;;;6.00;99.70;;;;;;5105994;28;20044;-75
2021/01/09 12:44:06;;;;;;;5.57;1.30;;;6.10;99.90;;;;;;5106263;28;20054;-75
2021/01/09 12:46:42;;;;;;;2.70;0.70;;;6.40;99.90;;;;;;5106216;28;20044;-75
2021/01/09 12:49:19;;;;;;;4.80;1.25;;;6.70;98.60;;;;;;5105892;28;20052;-75
2021/01/09 12:51:46;;;;;;;4.97;1.25;;;7.20;99.10;;;;;;5105969;28;20047;-75
2021/01/09 12:54:12;;;;;;;2.45;0.73;;;7.30;96.80;;;;;;5106138;28;20044;-76
2021/01/09 12:56:38;;;;;;;3.08;0.93;;;7.10;96.20;;;;;;5105964;28;20082;-74